createdAt,value
2019-01-24T00:01:03.431Z,14.57
2019-01-24T00:03:33.683Z,12.43
2019-01-24T00:06:04.112Z,13.03
2019-01-24T00:08:34.448Z,12.53
2019-01-24T00:11:05.288Z,13.63
2019-01-24T00:13:35.614Z,13.00
2019-01-24T00:16:06.260Z,11.90
2019-01-24T00:18:36.559Z,12.90
2019-01-24T00:21:06.972Z,12.10
2019-01-24T00:23:37.303Z,12.93
2019-01-24T00:26:07.660Z,13.73
2019-01-24T00:28:37.331Z,13.22
2019-01-24T00:31:07.563Z,12.90
2019-01-24T00:33:37.953Z,13.30
2019-01-24T00:36:08.312Z,13.23
2019-01-24T00:38:38.000Z,11.80
2019-01-24T00:41:08.228Z,12.80
2019-01-24T00:43:37.903Z,12.68
2019-01-24T00:46:08.142Z,12.17
2019-01-24T00:48:37.813Z,11.70
2019-01-24T00:51:08.121Z,11.97
2019-01-24T00:53:38.436Z,12.35
2019-01-24T00:56:08.101Z,12.40
2019-01-24T00:58:37.709Z,11.53
2019-01-24T01:01:08.052Z,13.30
2019-01-24T01:03:38.569Z,13.17
2019-01-24T01:06:08.848Z,13.73
2019-01-24T01:08:38.548Z,15.23
2019-01-24T01:11:08.791Z,15.27
2019-01-24T01:13:38.559Z,14.63
2019-01-24T01:16:09.110Z,15.25
2019-01-24T01:18:38.811Z,14.80
2019-01-24T01:21:09.264Z,15.23
2019-01-24T01:23:38.944Z,14.47
2019-01-24T01:26:09.169Z,15.40
2019-01-24T01:28:38.868Z,14.97
2019-01-24T01:31:09.104Z,15.27
2019-01-24T01:33:38.755Z,16.37
2019-01-24T01:36:09.032Z,16.13
2019-01-24T01:38:38.680Z,15.87
2019-01-24T01:41:08.297Z,16.03
2019-01-24T01:43:38.554Z,16.13
2019-01-24T01:46:08.895Z,16.27
2019-01-24T01:48:38.578Z,14.97
2019-01-24T01:51:08.819Z,15.80
2019-01-24T01:53:39.163Z,16.13
2019-01-24T01:56:09.472Z,15.47
2019-01-24T01:58:39.149Z,15.63
2019-01-24T02:01:09.388Z,16.90
2019-01-24T02:03:39.740Z,15.00
2019-01-24T02:06:10.048Z,15.97
2019-01-24T02:08:39.743Z,14.83
2019-01-24T02:11:09.980Z,14.90
2019-01-24T02:13:40.359Z,14.33
2019-01-24T02:16:10.688Z,13.80
2019-01-24T02:18:41.038Z,14.63
2019-01-24T02:21:11.347Z,14.50
2019-01-24T02:23:41.060Z,13.03
2019-01-24T02:26:11.312Z,12.97
2019-01-24T02:28:41.683Z,13.07
2019-01-24T02:31:11.990Z,12.80
2019-01-24T02:33:41.703Z,14.80
2019-01-24T02:36:11.288Z,13.67
2019-01-24T02:38:41.535Z,14.60
2019-01-24T02:41:11.213Z,14.17
2019-01-24T02:43:41.436Z,15.33
2019-01-24T02:46:11.092Z,15.37
2019-01-24T02:48:40.706Z,14.97
2019-01-24T02:51:10.291Z,14.83
2019-01-24T02:53:40.518Z,15.53
2019-01-24T02:56:10.195Z,14.03
2019-01-24T02:58:40.423Z,14.87
2019-01-24T03:01:10.128Z,15.77
2019-01-24T03:03:40.375Z,15.57
2019-01-24T03:06:10.051Z,13.50
2019-01-24T03:08:40.300Z,14.60
2019-01-24T03:11:10.655Z,14.47
2019-01-24T03:13:43.125Z,14.50
2019-01-24T03:16:12.855Z,14.23
2019-01-24T03:18:43.093Z,15.13
2019-01-24T03:21:12.793Z,14.37
2019-01-24T03:23:43.012Z,15.13
2019-01-24T03:26:12.747Z,14.07
2019-01-24T03:28:42.996Z,13.00
2019-01-24T03:31:13.363Z,12.43
2019-01-24T03:33:43.674Z,13.10
2019-01-24T03:36:13.345Z,12.30
2019-01-24T03:38:43.584Z,12.90
2019-01-24T03:41:13.946Z,11.73
2019-01-24T03:43:43.602Z,11.40
2019-01-24T03:46:13.873Z,10.80
2019-01-24T03:48:44.209Z,10.67
2019-01-24T03:51:14.543Z,10.67
2019-01-24T03:53:44.860Z,10.17
2019-01-24T03:56:15.188Z,9.67
2019-01-24T03:58:44.884Z,9.83
2019-01-24T04:01:15.152Z,10.20
2019-01-24T04:03:45.665Z,10.70
2019-01-24T04:06:15.984Z,10.13
2019-01-24T04:08:45.679Z,10.80
2019-01-24T04:11:15.927Z,9.80
2019-01-24T04:13:46.272Z,9.57
2019-01-24T04:16:16.592Z,11.00
2019-01-24T04:18:46.288Z,10.53
2019-01-24T04:21:15.872Z,10.00
2019-01-24T04:23:46.124Z,10.90
2019-01-24T04:26:16.447Z,10.37
2019-01-24T04:28:46.148Z,10.20
2019-01-24T04:31:16.398Z,10.57
2019-01-24T04:33:46.738Z,10.67
2019-01-24T04:36:17.056Z,11.48
2019-01-24T04:38:46.755Z,12.67
2019-01-24T04:41:16.988Z,13.10
2019-01-24T04:43:47.371Z,13.03
2019-01-24T04:46:17.699Z,11.93
2019-01-24T04:48:47.400Z,11.73
2019-01-24T04:51:17.632Z,12.70
2019-01-24T04:53:47.969Z,12.17
2019-01-24T04:56:18.322Z,11.50
2019-01-24T04:58:48.689Z,12.70
2019-01-24T05:01:18.998Z,11.47
2019-01-24T05:03:49.316Z,11.43
2019-01-24T05:06:19.655Z,11.57
2019-01-24T05:08:49.903Z,12.90
2019-01-24T05:11:20.737Z,11.60
2019-01-24T05:13:51.064Z,12.60
2019-01-24T05:16:21.427Z,12.13
2019-01-24T05:18:51.100Z,11.90
2019-01-24T05:21:21.359Z,12.43
2019-01-24T05:23:51.035Z,13.43
2019-01-24T05:26:21.292Z,12.13
2019-01-24T05:28:50.981Z,11.63
2019-01-24T05:31:21.237Z,11.77
2019-01-24T05:33:50.913Z,10.23
2019-01-24T05:36:21.172Z,10.53
2019-01-24T05:38:51.516Z,10.07
2019-01-24T05:41:21.219Z,10.53
2019-01-24T05:43:50.816Z,10.10
2019-01-24T05:46:21.063Z,9.00
2019-01-24T05:48:50.747Z,9.53
2019-01-24T05:51:21.002Z,8.77
2019-01-24T05:53:51.319Z,8.97
2019-01-24T05:56:21.661Z,7.77
2019-01-24T05:58:51.327Z,7.97
2019-01-24T06:01:22.082Z,8.17
2019-01-24T06:03:51.739Z,7.93
2019-01-24T06:06:21.974Z,6.67
2019-01-24T06:08:51.640Z,6.27
2019-01-24T06:11:21.212Z,5.70
2019-01-24T06:13:50.768Z,5.57
2019-01-24T06:16:21.163Z,5.37
2019-01-24T06:18:50.831Z,5.27
2019-01-24T06:21:21.072Z,5.53
2019-01-24T06:23:50.749Z,8.67
2019-01-24T06:26:20.979Z,10.70
2019-01-24T06:28:50.648Z,9.03
2019-01-24T06:31:20.207Z,8.10
2019-01-24T06:33:49.800Z,7.67
2019-01-24T06:36:19.636Z,9.80
2019-01-24T06:38:49.936Z,11.47
2019-01-24T06:41:20.271Z,9.63
2019-01-24T06:43:50.624Z,7.10
2019-01-24T06:46:20.960Z,6.63
2019-01-24T06:48:50.644Z,5.60
2019-01-24T06:51:20.867Z,6.50
2019-01-24T06:53:51.398Z,5.63
2019-01-24T06:56:21.059Z,5.80
2019-01-24T06:58:50.663Z,4.93
2019-01-24T07:01:20.900Z,6.03
2019-01-24T07:03:51.245Z,6.93
2019-01-24T07:06:21.586Z,5.00
2019-01-24T07:08:51.286Z,7.37
2019-01-24T07:11:21.511Z,8.47
2019-01-24T07:13:51.251Z,6.53
2019-01-24T07:16:21.598Z,7.73
2019-01-24T07:18:51.312Z,6.67
2019-01-24T07:21:20.887Z,6.83
2019-01-24T07:23:50.480Z,7.70
2019-01-24T07:26:20.059Z,6.80
2019-01-24T07:28:50.341Z,6.60
2019-01-24T07:31:20.043Z,6.00
2019-01-24T07:33:50.272Z,5.30
2019-01-24T07:36:20.012Z,6.20
2019-01-24T07:38:50.244Z,6.30
2019-01-24T07:41:19.927Z,5.70
2019-01-24T07:43:50.203Z,5.50
2019-01-24T07:46:20.565Z,5.50
2019-01-24T07:48:50.223Z,6.17
2019-01-24T07:51:20.467Z,5.17
2019-01-24T07:53:50.784Z,5.73
2019-01-24T07:56:21.238Z,8.10
2019-01-24T07:58:50.920Z,8.07
2019-01-24T08:01:20.516Z,8.27
2019-01-24T08:03:50.732Z,8.80
2019-01-24T08:06:21.080Z,7.87
2019-01-24T08:08:51.407Z,8.23
2019-01-24T08:11:21.770Z,9.77
2019-01-24T08:13:52.100Z,9.03
2019-01-24T08:16:21.812Z,9.23
2019-01-24T08:18:51.395Z,19.50
2019-01-24T08:21:21.768Z,12.93
2019-01-24T08:23:52.120Z,12.67
2019-01-24T08:26:21.840Z,7.23
2019-01-24T08:28:51.404Z,9.40
2019-01-24T08:31:20.988Z,9.50
2019-01-24T08:33:51.227Z,10.10
2019-01-24T08:36:21.592Z,11.20
2019-01-24T08:38:51.296Z,13.43
2019-01-24T08:41:21.556Z,13.67
2019-01-24T08:43:51.887Z,14.33
2019-01-24T08:46:21.576Z,17.20
2019-01-24T08:48:51.159Z,18.80
2019-01-24T08:51:21.404Z,19.53
2019-01-24T08:53:52.021Z,14.90
2019-01-24T08:56:21.691Z,13.63
2019-01-24T08:58:51.315Z,9.87
2019-01-24T09:01:21.592Z,7.60
2019-01-24T09:03:51.343Z,6.20
2019-01-24T09:06:22.721Z,4.33
2019-01-24T09:08:52.146Z,5.30
2019-01-24T09:11:22.364Z,4.53
2019-01-24T09:13:52.697Z,6.20
2019-01-24T09:16:23.020Z,5.63
2019-01-24T09:18:52.720Z,5.80
2019-01-24T09:21:22.287Z,8.03
2019-01-24T09:23:52.784Z,6.57
2019-01-24T09:26:23.108Z,7.13
2019-01-24T09:28:52.773Z,7.67
2019-01-24T09:31:23.068Z,10.80
2019-01-24T09:33:52.743Z,14.83
2019-01-24T09:36:22.387Z,15.00
2019-01-24T09:38:51.961Z,13.10
2019-01-24T09:41:21.616Z,14.23
2019-01-24T09:43:51.960Z,13.67
2019-01-24T09:46:22.320Z,13.87
2019-01-24T09:48:52.651Z,11.50
2019-01-24T09:51:23.000Z,16.57
2019-01-24T09:53:53.346Z,17.67
2019-01-24T09:56:23.008Z,19.37
2019-01-24T09:58:52.699Z,19.00
2019-01-24T10:01:22.312Z,13.30
2019-01-24T10:03:52.677Z,12.73
2019-01-24T10:06:22.406Z,11.07
2019-01-24T10:08:51.987Z,9.57
2019-01-24T10:11:23.622Z,11.00
2019-01-24T10:13:52.780Z,10.13
2019-01-24T10:16:22.424Z,8.77
2019-01-24T10:18:52.123Z,7.37
2019-01-24T10:21:22.361Z,8.07
2019-01-24T10:23:52.677Z,8.20
2019-01-24T10:26:22.351Z,8.33
2019-01-24T10:28:51.959Z,8.33
2019-01-24T10:31:22.304Z,7.77
2019-01-24T10:33:51.976Z,7.67
2019-01-24T10:36:21.572Z,7.83
2019-01-24T10:38:51.163Z,7.73
2019-01-24T10:41:21.778Z,6.08
2019-01-24T10:43:52.160Z,5.83
2019-01-24T10:46:22.472Z,5.07
2019-01-24T10:48:52.255Z,5.03
2019-01-24T10:51:22.480Z,6.97
2019-01-24T10:53:52.820Z,6.50
2019-01-24T10:56:23.177Z,6.07
2019-01-24T10:58:53.496Z,6.40
2019-01-24T11:01:23.847Z,6.37
2019-01-24T11:03:53.614Z,6.77
2019-01-24T11:06:23.899Z,6.90
2019-01-24T11:08:53.556Z,7.37
2019-01-24T11:11:23.159Z,7.00
2019-01-24T11:13:52.732Z,7.13
2019-01-24T11:16:23.015Z,7.70
2019-01-24T11:18:52.720Z,6.87
2019-01-24T11:21:22.996Z,7.20
2019-01-24T11:23:53.479Z,8.33
2019-01-24T11:26:23.183Z,7.90
2019-01-24T11:28:52.772Z,8.53
2019-01-24T11:31:23.068Z,8.57
2019-01-24T11:33:52.751Z,8.77
2019-01-24T11:36:22.367Z,8.17
2019-01-24T11:38:51.975Z,8.33
2019-01-24T11:41:22.836Z,8.37
2019-01-24T11:43:53.191Z,8.00
2019-01-24T11:46:23.411Z,8.33
2019-01-24T11:48:53.092Z,7.73
2019-01-24T11:51:26.083Z,7.40
2019-01-24T11:53:56.420Z,7.10
2019-01-24T11:56:26.140Z,8.00
2019-01-24T11:58:56.514Z,6.57
2019-01-24T12:01:26.180Z,8.50
2019-01-24T12:03:56.484Z,7.20
2019-01-24T12:06:26.172Z,7.70
2019-01-24T12:08:55.826Z,7.83
2019-01-24T12:11:25.456Z,9.37
2019-01-24T12:13:55.060Z,8.57
2019-01-24T12:16:25.324Z,8.73
2019-01-24T12:18:55.012Z,8.20
2019-01-24T12:21:24.607Z,8.23
2019-01-24T12:23:54.845Z,8.27
2019-01-24T12:26:24.516Z,7.93
2019-01-24T12:28:54.107Z,8.90
2019-01-24T12:31:23.703Z,8.20
2019-01-24T12:33:54.084Z,8.63
2019-01-24T12:36:23.845Z,7.77
2019-01-24T12:38:54.072Z,8.27
2019-01-24T12:41:23.825Z,8.43
2019-01-24T12:43:54.032Z,7.53
2019-01-24T12:46:24.387Z,7.47
2019-01-24T12:48:54.725Z,6.87
2019-01-24T12:51:25.043Z,7.93
2019-01-24T12:53:54.711Z,7.12
2019-01-24T12:56:24.307Z,6.97
2019-01-24T12:58:54.593Z,7.10
2019-01-24T13:01:24.912Z,6.90
2019-01-24T13:03:55.247Z,7.33
2019-01-24T13:06:25.617Z,6.47
2019-01-24T13:08:55.309Z,7.10
2019-01-24T13:11:25.593Z,6.92
2019-01-24T13:13:55.279Z,6.40
2019-01-24T13:16:25.626Z,5.93
2019-01-24T13:18:55.965Z,5.90
2019-01-24T13:21:26.281Z,5.37
2019-01-24T13:23:56.051Z,5.20
2019-01-24T13:26:26.296Z,5.17
2019-01-24T13:28:55.976Z,4.80
2019-01-24T13:31:26.200Z,5.60
2019-01-24T13:33:55.865Z,5.37
2019-01-24T13:36:25.467Z,5.63
2019-01-24T13:38:55.044Z,5.40
2019-01-24T13:41:25.298Z,6.30
2019-01-24T13:43:54.961Z,5.00
2019-01-24T13:46:25.208Z,5.37
2019-01-24T13:48:55.524Z,7.73
2019-01-24T13:51:25.853Z,5.20
2019-01-24T13:53:55.504Z,4.23
2019-01-24T13:56:25.103Z,4.40
2019-01-24T13:58:55.352Z,5.00
2019-01-24T14:01:25.016Z,4.73
2019-01-24T14:04:19.451Z,4.73
2019-01-24T14:06:49.028Z,4.60
2019-01-24T14:09:19.272Z,4.83
2019-01-24T14:11:49.888Z,4.07
2019-01-24T14:14:20.716Z,4.10
2019-01-24T14:16:51.308Z,6.07
2019-01-24T14:19:21.644Z,4.33
2019-01-24T14:21:52.011Z,4.27
2019-01-24T14:24:21.692Z,5.47
2019-01-24T14:26:51.956Z,4.57
2019-01-24T14:29:21.620Z,6.30
2019-01-24T14:31:51.204Z,4.93
2019-01-24T14:34:20.787Z,5.67
2019-01-24T14:36:51.124Z,5.30
2019-01-24T14:39:21.481Z,5.67
2019-01-24T14:41:51.147Z,6.20
2019-01-24T14:44:20.724Z,6.67
2019-01-24T14:46:50.319Z,5.50
2019-01-24T14:49:20.033Z,5.53
2019-01-24T14:51:49.603Z,6.50
2019-01-24T14:54:19.647Z,5.07
2019-01-24T14:56:49.212Z,5.47
2019-01-24T14:59:19.560Z,7.30
2019-01-24T15:01:49.144Z,7.97
2019-01-24T15:04:19.396Z,7.70
2019-01-24T15:06:49.123Z,9.65
2019-01-24T15:09:19.389Z,10.07
2019-01-24T15:11:49.071Z,9.60
2019-01-24T15:14:19.415Z,8.50
2019-01-24T15:16:48.992Z,7.70
2019-01-24T15:19:19.312Z,8.70
2019-01-24T15:21:48.964Z,6.60
2019-01-24T15:24:19.356Z,7.37
2019-01-24T15:26:49.618Z,6.97
2019-01-24T15:29:20.004Z,14.30
2019-01-24T15:31:49.591Z,18.93
2019-01-24T15:34:19.757Z,20.30
2019-01-24T15:36:50.018Z,22.70
2019-01-24T15:39:19.736Z,22.67
2019-01-24T15:41:49.976Z,23.27
2019-01-24T15:44:20.344Z,23.33
2019-01-24T15:46:50.148Z,21.73
2019-01-24T15:49:20.377Z,22.37
2019-01-24T15:51:50.023Z,21.50
2019-01-24T15:54:20.291Z,21.33
2019-01-24T15:56:49.992Z,20.70
2019-01-24T15:59:19.580Z,20.67
2019-01-24T16:01:49.277Z,20.97
2019-01-24T16:04:20.069Z,19.43
2019-01-24T16:06:50.366Z,20.47
2019-01-24T16:09:20.026Z,19.67
2019-01-24T16:11:49.612Z,18.35
2019-01-24T16:14:20.390Z,19.10
2019-01-24T16:16:50.084Z,17.90
2019-01-24T16:19:19.668Z,17.03
2019-01-24T16:21:49.288Z,16.27
2019-01-24T16:24:20.284Z,17.00
2019-01-24T16:26:50.013Z,16.63
2019-01-24T16:29:20.412Z,17.27
2019-01-24T16:31:50.103Z,15.93
2019-01-24T16:34:19.795Z,17.73
2019-01-24T16:36:50.056Z,19.47
2019-01-24T16:39:20.466Z,14.07
2019-01-24T16:41:50.056Z,14.70
2019-01-24T16:44:20.288Z,11.97
2019-01-24T16:46:50.668Z,10.50
2019-01-24T16:49:20.342Z,10.93
2019-01-24T16:51:49.980Z,11.10
2019-01-24T16:54:20.213Z,10.20
2019-01-24T16:56:49.908Z,9.50
2019-01-24T16:59:19.491Z,11.30
2019-01-24T17:01:49.072Z,8.90
2019-01-24T17:04:19.860Z,12.67
2019-01-24T17:06:50.195Z,12.00
2019-01-24T17:09:19.898Z,10.17
2019-01-24T17:11:49.460Z,8.90
2019-01-24T17:14:22.401Z,8.85
2019-01-24T17:16:51.359Z,8.40
2019-01-24T17:19:21.028Z,7.70
2019-01-24T17:21:52.541Z,8.00
2019-01-24T17:24:22.395Z,8.43
2019-01-24T17:26:52.619Z,7.27
2019-01-24T17:29:22.940Z,6.43
2019-01-24T17:31:52.643Z,7.10
2019-01-24T17:34:22.211Z,8.00
2019-01-24T17:36:51.851Z,8.30
2019-01-24T17:39:21.440Z,8.67
2019-01-24T17:41:51.673Z,7.40
2019-01-24T17:44:21.374Z,8.30
2019-01-24T17:46:51.592Z,8.47
2019-01-24T17:49:21.280Z,8.70
2019-01-24T17:51:50.860Z,8.70
2019-01-24T17:54:21.076Z,9.93
2019-01-24T17:56:50.748Z,11.43
2019-01-24T17:59:20.328Z,13.03
2019-01-24T18:01:50.589Z,13.90
2019-01-24T18:04:21.807Z,13.70
2019-01-24T18:06:51.750Z,16.13
2019-01-24T18:09:21.339Z,18.97
2019-01-24T18:11:51.584Z,22.33
2019-01-24T18:14:21.260Z,24.20
2019-01-24T18:16:50.836Z,39.97
2019-01-24T18:19:20.481Z,40.27
2019-01-24T18:21:50.116Z,40.80
2019-01-24T18:24:20.410Z,62.23
2019-01-24T18:26:50.095Z,51.30
2019-01-24T18:29:19.736Z,69.57
2019-01-24T18:31:49.316Z,92.60
2019-01-24T18:34:18.891Z,48.73
2019-01-24T18:36:48.492Z,46.63
2019-01-24T18:39:18.129Z,43.05
2019-01-24T18:41:47.780Z,40.07
2019-01-24T18:44:18.084Z,38.57
2019-01-24T18:46:47.752Z,38.20
2019-01-24T18:49:18.137Z,38.53
2019-01-24T18:51:47.751Z,33.77
2019-01-24T18:54:18.092Z,32.47
2019-01-24T18:56:48.356Z,31.03
2019-01-24T18:59:19.114Z,28.98
2019-01-24T19:01:49.029Z,31.40
2019-01-24T19:04:18.723Z,27.33
2019-01-24T19:06:48.352Z,28.80
2019-01-24T19:09:18.298Z,29.75
2019-01-24T19:11:47.934Z,30.27
2019-01-24T19:14:18.201Z,27.70
2019-01-24T19:16:48.967Z,27.00
2019-01-24T19:19:18.676Z,27.20
2019-01-24T19:21:49.082Z,26.37
2019-01-24T19:24:19.476Z,24.17
2019-01-24T19:26:49.968Z,23.02
2019-01-24T19:29:19.753Z,21.37
2019-01-24T19:31:49.994Z,23.37
2019-01-24T19:34:20.379Z,21.30
2019-01-24T19:36:50.755Z,22.70
2019-01-24T19:39:21.194Z,26.10
2019-01-24T19:41:51.452Z,22.87
2019-01-24T19:44:21.921Z,21.37
2019-01-24T19:46:52.299Z,22.53
2019-01-24T19:49:22.616Z,21.73
2019-01-24T19:51:52.972Z,21.10
2019-01-24T19:54:23.368Z,21.37
2019-01-24T19:56:54.484Z,24.00
2019-01-24T19:59:24.924Z,22.90
2019-01-24T20:01:55.409Z,20.77
2019-01-24T20:04:25.788Z,20.90
2019-01-24T20:06:55.592Z,20.67
2019-01-24T20:09:25.231Z,19.37
2019-01-24T20:11:54.941Z,19.77
2019-01-24T20:14:25.187Z,20.60
2019-01-24T20:16:55.111Z,20.87
2019-01-24T20:19:25.401Z,19.70
2019-01-24T20:21:55.091Z,22.87
2019-01-24T20:24:25.329Z,22.47
2019-01-24T20:26:55.079Z,22.73
2019-01-24T20:29:24.659Z,23.57
2019-01-24T20:31:55.097Z,27.13
2019-01-24T20:34:24.780Z,26.80
2019-01-24T20:36:54.367Z,25.97
2019-01-24T20:39:24.643Z,26.50
2019-01-24T20:41:54.988Z,27.00
2019-01-24T20:44:24.717Z,27.10
2019-01-24T20:46:55.015Z,27.03
2019-01-24T20:49:24.691Z,27.57
2019-01-24T20:51:54.932Z,27.67
2019-01-24T20:54:25.427Z,25.80
2019-01-24T20:56:55.824Z,25.13
2019-01-24T20:59:25.536Z,25.70
2019-01-24T21:01:55.175Z,25.37
2019-01-24T21:04:25.500Z,22.97
2019-01-24T21:06:55.212Z,24.17
2019-01-24T21:09:25.575Z,24.30
2019-01-24T21:11:55.297Z,24.10
2019-01-24T21:14:24.866Z,23.97
2019-01-24T21:16:54.504Z,23.40
2019-01-24T21:19:24.084Z,24.63
2019-01-24T21:21:54.325Z,23.63
2019-01-24T21:24:24.701Z,23.77
2019-01-24T21:26:54.404Z,23.70
2019-01-24T21:29:24.652Z,23.13
2019-01-24T21:31:55.006Z,24.47
2019-01-24T21:34:25.408Z,24.23
2019-01-24T21:36:55.720Z,23.10
2019-01-24T21:39:25.452Z,23.75
2019-01-24T21:41:55.721Z,22.53
2019-01-24T21:44:25.396Z,22.03
2019-01-24T21:46:55.663Z,20.80
2019-01-24T21:49:26.148Z,21.83
2019-01-24T21:51:55.840Z,19.70
2019-01-24T21:54:26.092Z,20.10
2019-01-24T21:56:55.785Z,18.20
2019-01-24T21:59:25.367Z,19.60
2019-01-24T22:01:55.672Z,17.87
2019-01-24T22:04:26.010Z,19.83
2019-01-24T22:06:56.360Z,18.73
2019-01-24T22:09:29.284Z,17.80
2019-01-24T22:11:57.268Z,18.03
2019-01-24T22:14:26.838Z,16.93
2019-01-24T22:16:56.444Z,17.90
2019-01-24T22:19:26.760Z,19.90
2019-01-24T22:21:56.484Z,17.03
2019-01-24T22:24:26.097Z,19.97
2019-01-24T22:26:56.340Z,18.57
2019-01-24T22:29:26.051Z,18.97
2019-01-24T22:31:56.277Z,19.77
2019-01-24T22:34:25.963Z,19.33
2019-01-24T22:36:56.216Z,18.27
2019-01-24T22:39:25.916Z,17.07
2019-01-24T22:41:56.143Z,19.80
2019-01-24T22:44:25.832Z,23.20
2019-01-24T22:46:56.163Z,24.40
2019-01-24T22:49:25.860Z,23.47
2019-01-24T22:51:56.098Z,26.70
2019-01-24T22:54:25.783Z,25.52
2019-01-24T22:56:55.367Z,26.10
2019-01-24T22:59:25.667Z,26.87
2019-01-24T23:02:07.264Z,27.77
2019-01-24T23:04:36.951Z,25.27
2019-01-24T23:07:06.515Z,26.03
2019-01-24T23:09:43.823Z,31.40
2019-01-24T23:12:08.965Z,25.93
2019-01-24T23:14:38.651Z,28.15
2019-01-24T23:17:08.884Z,28.67
2019-01-24T23:19:39.224Z,29.57
2019-01-24T23:22:09.560Z,30.30
2019-01-24T23:24:39.963Z,31.43
2019-01-24T23:27:09.615Z,30.87
2019-01-24T23:29:39.871Z,29.00
2019-01-24T23:32:10.208Z,29.30
2019-01-24T23:34:40.564Z,29.20
2019-01-24T23:37:10.237Z,30.50
2019-01-24T23:39:40.471Z,30.30
2019-01-24T23:42:10.837Z,28.17
2019-01-24T23:44:41.164Z,32.80
2019-01-24T23:47:12.082Z,30.37
2019-01-24T23:49:42.415Z,31.60
2019-01-24T23:52:12.864Z,29.23
2019-01-24T23:54:43.199Z,30.13
2019-01-24T23:57:13.512Z,31.10
2019-01-24T23:59:43.840Z,32.73
